createdAt,value
2023-04-23T00:00:57.644Z,7.18
2023-04-23T00:03:27.123Z,8.43
2023-04-23T00:05:57.782Z,4.38
2023-04-23T00:08:24.939Z,5.13
2023-04-23T00:10:57.322Z,5.40
2023-04-23T00:13:30.720Z,6.97
2023-04-23T00:15:57.611Z,5.78
2023-04-23T00:18:24.174Z,8.65
2023-04-23T00:20:50.717Z,9.02
2023-04-23T00:23:17.570Z,4.60
2023-04-23T00:25:44.080Z,3.53
2023-04-23T00:28:13.460Z,6.50
2023-04-23T00:30:40.087Z,3.97
2023-04-23T00:33:12.210Z,4.85
2023-04-23T00:35:39.206Z,6.25
2023-04-23T00:38:06.116Z,4.57
2023-04-23T00:40:32.591Z,4.57
2023-04-23T00:43:00.203Z,6.60
2023-04-23T00:45:29.741Z,5.47
2023-04-23T00:47:56.595Z,6.82
2023-04-23T00:50:31.136Z,6.55
2023-04-23T00:53:00.982Z,6.85
2023-04-23T00:55:30.996Z,6.05
2023-04-23T00:57:57.570Z,5.38
2023-04-23T01:00:24.681Z,7.47
2023-04-23T01:02:54.712Z,6.32
2023-04-23T01:05:26.475Z,9.23
2023-04-23T01:07:54.041Z,7.28
2023-04-23T01:10:23.868Z,7.00
2023-04-23T01:12:53.390Z,8.00
2023-04-23T01:15:19.932Z,4.72
2023-04-23T01:17:49.027Z,6.95
2023-04-23T01:20:19.052Z,8.15
2023-04-23T01:22:51.354Z,8.00
2023-04-23T01:25:21.223Z,6.10
2023-04-23T01:27:50.926Z,8.23
2023-04-23T01:30:17.754Z,8.27
2023-04-23T01:32:44.477Z,10.70
2023-04-23T01:35:14.661Z,9.02
2023-04-23T01:37:48.631Z,7.85
2023-04-23T01:40:15.312Z,6.15
2023-04-23T01:42:41.848Z,4.38
2023-04-23T01:45:15.335Z,5.88
2023-04-23T01:47:42.134Z,8.82
2023-04-23T01:50:12.581Z,7.05
2023-04-23T01:52:41.823Z,5.57
2023-04-23T01:55:09.408Z,6.40
2023-04-23T01:57:39.715Z,6.85
2023-04-23T02:00:11.119Z,5.25
2023-04-23T02:02:39.474Z,5.93
2023-04-23T02:05:11.671Z,6.70
2023-04-23T02:07:38.590Z,9.48
2023-04-23T02:10:08.264Z,5.75
2023-04-23T02:12:44.570Z,6.55
2023-04-23T02:15:12.342Z,5.68
2023-04-23T02:17:40.026Z,4.93
2023-04-23T02:20:09.723Z,5.70
2023-04-23T02:22:41.475Z,6.63
2023-04-23T02:25:08.907Z,5.43
2023-04-23T02:27:35.719Z,5.00
2023-04-23T02:30:06.002Z,5.50
2023-04-23T02:32:37.671Z,4.97
2023-04-23T02:35:06.526Z,7.35
2023-04-23T02:37:33.855Z,5.32
2023-04-23T02:40:00.313Z,4.13
2023-04-23T02:42:27.018Z,4.93
2023-04-23T02:44:53.461Z,5.78
2023-04-23T02:47:19.972Z,5.95
2023-04-23T02:49:46.454Z,6.47
2023-04-23T02:52:13.035Z,5.90
2023-04-23T02:54:40.905Z,5.32
2023-04-23T02:57:07.636Z,5.85
2023-04-23T02:59:34.125Z,5.72
2023-04-23T03:02:00.784Z,4.88
2023-04-23T03:04:27.756Z,5.68
2023-04-23T03:06:54.243Z,7.63
2023-04-23T03:09:20.765Z,5.22
2023-04-23T03:11:48.048Z,5.88
2023-04-23T03:14:14.588Z,4.90
2023-04-23T03:16:41.115Z,6.88
2023-04-23T03:19:07.694Z,5.88
2023-04-23T03:21:34.133Z,5.35
2023-04-23T03:24:01.229Z,6.70
2023-04-23T03:26:27.673Z,5.60
2023-04-23T03:28:54.476Z,5.95
2023-04-23T03:31:20.976Z,5.80
2023-04-23T03:33:47.490Z,7.60
2023-04-23T03:36:14.093Z,6.15
2023-04-23T03:38:40.650Z,8.15
2023-04-23T03:41:10.484Z,9.35
2023-04-23T03:43:36.966Z,9.73
2023-04-23T03:46:03.467Z,8.60
2023-04-23T03:48:30.021Z,9.32
2023-04-23T03:50:56.487Z,11.38
2023-04-23T03:53:22.973Z,10.18
2023-04-23T03:55:49.458Z,11.23
2023-04-23T03:58:16.078Z,10.65
2023-04-23T04:00:42.605Z,11.23
2023-04-23T04:03:09.296Z,12.23
2023-04-23T04:05:36.007Z,12.80
2023-04-23T04:08:03.048Z,11.57
2023-04-23T04:10:29.623Z,12.38
2023-04-23T04:12:56.190Z,13.30
2023-04-23T04:15:22.854Z,13.15
2023-04-23T04:17:49.444Z,14.32
2023-04-23T04:20:15.925Z,13.77
2023-04-23T04:22:42.466Z,12.98
2023-04-23T04:25:09.744Z,13.52
2023-04-23T04:27:36.265Z,15.73
2023-04-23T04:30:03.320Z,15.70
2023-04-23T04:32:29.854Z,15.02
2023-04-23T04:34:57.364Z,13.65
2023-04-23T04:37:24.284Z,15.20
2023-04-23T04:39:51.233Z,13.70
2023-04-23T04:42:17.667Z,14.90
2023-04-23T04:44:44.312Z,17.33
2023-04-23T04:47:10.903Z,15.35
2023-04-23T04:49:38.275Z,16.60
2023-04-23T04:52:07.537Z,17.73
2023-04-23T04:54:34.038Z,17.27
2023-04-23T04:57:02.260Z,17.17
2023-04-23T04:59:28.801Z,16.63
2023-04-23T05:01:55.294Z,17.58
2023-04-23T05:04:21.815Z,17.85
2023-04-23T05:06:48.328Z,17.15
2023-04-23T05:09:14.807Z,18.48
2023-04-23T05:11:41.486Z,18.05
2023-04-23T05:14:08.382Z,17.83
2023-04-23T05:16:35.299Z,20.90
2023-04-23T05:19:01.792Z,19.02
2023-04-23T05:21:28.343Z,19.08
2023-04-23T05:23:55.494Z,16.27
2023-04-23T05:26:21.970Z,17.02
2023-04-23T05:28:48.418Z,16.50
2023-04-23T05:31:17.945Z,15.52
2023-04-23T05:33:50.021Z,15.20
2023-04-23T05:36:17.885Z,14.43
2023-04-23T05:38:44.712Z,15.38
2023-04-23T05:41:11.443Z,15.05
2023-04-23T05:43:37.968Z,16.30
2023-04-23T05:46:06.509Z,14.68
2023-04-23T05:48:33.869Z,15.65
2023-04-23T05:51:00.497Z,21.95
2023-04-23T05:53:28.360Z,18.33
2023-04-23T05:55:54.866Z,20.95
2023-04-23T05:58:25.812Z,20.55
2023-04-23T06:00:53.285Z,23.90
2023-04-23T06:03:20.094Z,20.83
2023-04-23T06:05:46.944Z,20.38
2023-04-23T06:08:13.454Z,18.80
2023-04-23T06:10:39.994Z,19.73
2023-04-23T06:13:06.490Z,18.65
2023-04-23T06:15:32.987Z,19.80
2023-04-23T06:17:59.524Z,21.73
2023-04-23T06:20:26.235Z,22.27
2023-04-23T06:22:53.477Z,22.95
2023-04-23T06:25:20.123Z,24.35
2023-04-23T06:27:46.714Z,25.58
2023-04-23T06:30:13.433Z,25.77
2023-04-23T06:32:39.992Z,31.25
2023-04-23T06:35:07.566Z,28.27
2023-04-23T06:37:34.752Z,29.83
2023-04-23T06:40:01.255Z,29.80
2023-04-23T06:42:27.787Z,30.98
2023-04-23T06:44:54.458Z,34.85
2023-04-23T06:47:21.036Z,35.80
2023-04-23T06:49:47.520Z,33.22
2023-04-23T06:52:14.026Z,36.20
2023-04-23T06:54:40.958Z,35.97
2023-04-23T06:57:07.634Z,36.47
2023-04-23T06:59:34.138Z,36.17
2023-04-23T07:02:00.843Z,34.75
2023-04-23T07:04:27.329Z,34.90
2023-04-23T07:06:54.130Z,35.85
2023-04-23T07:09:20.874Z,37.45
2023-04-23T07:11:47.637Z,39.75
2023-04-23T07:14:14.141Z,38.40
2023-04-23T07:16:40.902Z,40.72
2023-04-23T07:19:07.415Z,39.78
2023-04-23T07:21:33.980Z,37.75
2023-04-23T07:24:00.832Z,35.28
2023-04-23T07:26:27.997Z,32.72
2023-04-23T07:28:54.633Z,34.28
2023-04-23T07:31:21.947Z,36.75
2023-04-23T07:33:48.460Z,36.13
2023-04-23T07:36:15.129Z,35.67
2023-04-23T07:38:43.337Z,38.15
2023-04-23T07:41:09.946Z,22.17
2023-04-23T07:43:36.428Z,21.08
2023-04-23T07:46:03.152Z,18.80
2023-04-23T07:48:29.748Z,20.35
2023-04-23T07:50:56.982Z,20.25
2023-04-23T07:53:28.641Z,16.13
2023-04-23T07:55:56.541Z,17.13
2023-04-23T07:58:24.705Z,13.07
2023-04-23T08:00:51.469Z,13.82
2023-04-23T08:03:18.233Z,8.48
2023-04-23T08:05:44.971Z,8.43
2023-04-23T08:08:12.722Z,7.70
2023-04-23T08:10:39.179Z,9.43
2023-04-23T08:13:05.817Z,7.43
2023-04-23T08:15:32.318Z,7.45
2023-04-23T08:17:58.809Z,8.98
2023-04-23T08:20:25.916Z,8.23
2023-04-23T08:22:53.712Z,7.90
2023-04-23T08:25:22.973Z,7.53
2023-04-23T08:27:50.076Z,7.43
2023-04-23T08:30:16.556Z,6.40
2023-04-23T08:32:43.042Z,7.68
2023-04-23T08:35:10.204Z,7.65
2023-04-23T08:37:36.820Z,6.88
2023-04-23T08:40:05.016Z,6.40
2023-04-23T08:42:40.291Z,5.72
2023-04-23T08:45:07.583Z,5.18
2023-04-23T08:47:35.309Z,4.68
2023-04-23T08:50:04.308Z,4.78
2023-04-23T08:52:37.115Z,4.93
2023-04-23T08:55:10.620Z,9.20
2023-04-23T08:57:40.663Z,7.43
2023-04-23T09:00:10.125Z,8.98
2023-04-23T09:02:42.433Z,7.88
2023-04-23T09:05:09.604Z,8.25
2023-04-23T09:07:36.877Z,8.65
2023-04-23T09:10:06.093Z,8.63
2023-04-23T09:12:35.571Z,8.07
2023-04-23T09:15:10.353Z,6.55
2023-04-23T09:17:40.967Z,6.82
2023-04-23T09:20:10.986Z,5.10
2023-04-23T09:22:55.220Z,3.80
2023-04-23T09:25:23.798Z,5.00
2023-04-23T09:27:52.094Z,5.35
2023-04-23T09:30:19.714Z,8.00
2023-04-23T09:32:47.710Z,4.50
2023-04-23T09:35:17.026Z,5.93
2023-04-23T09:37:48.462Z,5.75
2023-04-23T09:40:17.211Z,6.13
2023-04-23T09:42:49.648Z,4.53
2023-04-23T09:45:16.589Z,4.45
2023-04-23T09:47:53.370Z,3.85
2023-04-23T09:50:31.401Z,3.45
2023-04-23T09:52:57.998Z,5.95
2023-04-23T09:55:30.731Z,5.38
2023-04-23T09:57:58.170Z,3.83
2023-04-23T10:00:29.302Z,5.10
2023-04-23T10:02:56.033Z,5.68
2023-04-23T10:05:26.011Z,6.13
2023-04-23T10:07:59.358Z,4.78
2023-04-23T10:10:26.135Z,5.22
2023-04-23T10:12:55.742Z,4.53
2023-04-23T10:15:25.390Z,3.47
2023-04-23T10:17:52.483Z,5.03
2023-04-23T10:20:21.698Z,3.95
2023-04-23T10:22:48.909Z,4.82
2023-04-23T10:25:16.008Z,2.95
2023-04-23T10:27:52.091Z,4.68
2023-04-23T10:30:20.628Z,3.35
2023-04-23T10:32:49.311Z,3.50
2023-04-23T10:35:16.026Z,4.75
2023-04-23T10:37:44.340Z,3.67
2023-04-23T10:40:14.325Z,2.35
2023-04-23T10:42:42.879Z,2.30
2023-04-23T10:45:23.454Z,5.20
2023-04-23T10:47:51.034Z,3.25
2023-04-23T10:50:34.775Z,4.00
2023-04-23T10:53:02.480Z,3.47
2023-04-23T10:55:31.197Z,3.47
2023-04-23T10:58:09.067Z,2.80
2023-04-23T11:00:41.378Z,3.95
2023-04-23T11:03:37.955Z,4.32
2023-04-23T11:06:07.181Z,4.05
2023-04-23T11:08:39.997Z,3.78
2023-04-23T11:11:08.416Z,4.80
2023-04-23T11:13:35.014Z,2.47
2023-04-23T11:16:21.801Z,4.55
2023-04-23T11:19:03.018Z,3.05
2023-04-23T11:22:01.482Z,2.30
2023-04-23T11:24:33.402Z,6.72
2023-04-23T11:27:01.278Z,2.72
2023-04-23T11:29:28.364Z,4.35
2023-04-23T11:34:26.203Z,2.58
2023-04-23T11:36:54.733Z,4.30
2023-04-23T11:39:24.660Z,3.95
2023-04-23T11:41:54.719Z,4.15
2023-04-23T11:44:21.816Z,3.28
2023-04-23T11:46:49.975Z,4.20
2023-04-23T11:49:20.649Z,2.50
2023-04-23T11:51:47.939Z,2.50
2023-04-23T11:54:15.190Z,2.80
2023-04-23T11:56:42.183Z,3.10
2023-04-23T11:59:09.496Z,3.95
2023-04-23T12:01:58.069Z,3.83
2023-04-23T12:04:29.143Z,2.67
2023-04-23T12:06:57.425Z,3.20
2023-04-23T12:09:26.326Z,3.45
2023-04-23T12:11:53.106Z,3.80
2023-04-23T12:14:30.660Z,2.25
2023-04-23T12:17:08.612Z,2.50
2023-04-23T12:19:35.145Z,2.65
2023-04-23T12:22:03.812Z,3.15
2023-04-23T12:24:33.530Z,3.45
2023-04-23T12:27:02.548Z,2.35
2023-04-23T12:29:31.145Z,2.75
2023-04-23T12:32:00.515Z,4.65
2023-04-23T12:34:27.011Z,2.83
2023-04-23T12:36:57.532Z,3.65
2023-04-23T12:39:34.989Z,3.88
2023-04-23T12:42:06.772Z,3.22
2023-04-23T12:44:39.541Z,2.42
2023-04-23T12:47:08.362Z,3.22
2023-04-23T12:49:36.772Z,3.47
2023-04-23T12:52:06.550Z,3.15
2023-04-23T12:54:38.421Z,3.33
2023-04-23T12:57:11.557Z,2.90
2023-04-23T12:59:42.282Z,4.50
2023-04-23T13:02:09.353Z,2.35
2023-04-23T13:04:36.416Z,4.35
2023-04-23T13:07:04.317Z,2.70
2023-04-23T13:09:30.912Z,2.00
2023-04-23T13:11:57.694Z,2.25
2023-04-23T13:14:24.159Z,2.22
2023-04-23T13:16:51.017Z,5.25
2023-04-23T13:19:18.002Z,2.75
2023-04-23T13:21:45.208Z,2.35
2023-04-23T13:24:11.964Z,2.53
2023-04-23T13:26:38.498Z,1.90
2023-04-23T13:29:05.277Z,4.65
2023-04-23T13:31:35.193Z,3.45
2023-04-23T13:34:02.960Z,3.13
2023-04-23T13:36:29.690Z,3.40
2023-04-23T13:38:56.253Z,1.80
2023-04-23T13:41:22.843Z,2.05
2023-04-23T13:43:49.504Z,2.00
2023-04-23T13:46:16.755Z,3.45
2023-04-23T13:48:43.312Z,2.78
2023-04-23T13:51:26.128Z,2.00
2023-04-23T13:53:59.600Z,2.20
2023-04-23T13:56:31.646Z,3.92
2023-04-23T13:59:18.979Z,2.80
2023-04-23T14:01:50.057Z,4.30
2023-04-23T14:04:17.808Z,3.17
2023-04-23T14:06:44.503Z,2.47
2023-04-23T14:09:11.308Z,3.03
2023-04-23T14:11:40.259Z,5.10
2023-04-23T14:14:07.556Z,3.55
2023-04-23T14:16:34.083Z,3.78
2023-04-23T14:19:00.826Z,2.40
2023-04-23T14:21:27.636Z,2.65
2023-04-23T14:24:08.051Z,2.72
2023-04-23T14:26:48.083Z,1.75
2023-04-23T14:29:40.345Z,3.13
2023-04-23T14:32:07.086Z,2.22
2023-04-23T14:34:36.458Z,2.10
2023-04-23T14:37:03.913Z,1.85
2023-04-23T14:39:30.573Z,2.03
2023-04-23T14:41:57.121Z,2.22
2023-04-23T14:44:24.802Z,2.05
2023-04-23T14:46:51.324Z,2.38
2023-04-23T14:49:18.997Z,1.92
2023-04-23T14:51:45.474Z,2.08
2023-04-23T14:54:12.121Z,2.45
2023-04-23T14:56:38.675Z,2.22
2023-04-23T14:59:05.176Z,2.38
2023-04-23T15:01:31.734Z,2.78
2023-04-23T15:03:58.499Z,2.63
2023-04-23T15:06:25.073Z,2.00
2023-04-23T15:08:51.513Z,2.55
2023-04-23T15:11:18.158Z,2.28
2023-04-23T15:14:30.588Z,3.08
2023-04-23T15:19:23.680Z,2.60
2023-04-23T15:21:50.498Z,4.93
2023-04-23T15:24:17.167Z,2.50
2023-04-23T15:26:45.764Z,4.90
2023-04-23T15:29:13.419Z,2.97
2023-04-23T15:31:40.746Z,4.10
2023-04-23T15:34:08.926Z,3.58
2023-04-23T15:36:37.521Z,3.38
2023-04-23T15:39:04.565Z,2.75
2023-04-23T15:41:31.093Z,3.67
2023-04-23T15:43:57.604Z,3.83
2023-04-23T15:46:24.105Z,3.47
2023-04-23T15:48:50.560Z,3.47
2023-04-23T15:51:20.098Z,3.35
2023-04-23T15:53:46.590Z,4.63
2023-04-23T15:56:13.105Z,3.08
2023-04-23T15:58:39.561Z,3.50
2023-04-23T16:01:07.635Z,6.20
2023-04-23T16:03:34.479Z,2.60
2023-04-23T16:06:01.471Z,3.55
2023-04-23T16:08:31.454Z,6.60
2023-04-23T16:10:59.316Z,2.92
2023-04-23T16:13:27.432Z,4.55
2023-04-23T16:15:53.994Z,4.60
2023-04-23T16:18:20.753Z,5.18
2023-04-23T16:20:50.867Z,6.25
2023-04-23T16:23:17.374Z,6.07
2023-04-23T16:25:44.574Z,5.35
2023-04-23T16:28:13.811Z,6.47
2023-04-23T16:30:40.517Z,4.20
2023-04-23T16:33:07.158Z,5.47
2023-04-23T16:35:33.769Z,4.15
2023-04-23T16:38:00.397Z,5.00
2023-04-23T16:40:27.728Z,4.82
2023-04-23T16:42:54.280Z,3.95
2023-04-23T16:45:23.058Z,6.88
2023-04-23T16:47:52.566Z,4.45
2023-04-23T16:50:19.139Z,4.78
2023-04-23T16:52:45.900Z,4.75
2023-04-23T16:55:12.376Z,6.15
2023-04-23T16:57:38.974Z,7.50
2023-04-23T17:00:06.161Z,5.80
2023-04-23T17:02:34.507Z,4.47
2023-04-23T17:05:01.805Z,5.45
2023-04-23T17:07:28.851Z,6.85
2023-04-23T17:09:55.370Z,5.55
2023-04-23T17:12:24.953Z,7.55
2023-04-23T17:14:54.236Z,7.80
2023-04-23T17:17:20.760Z,6.32
2023-04-23T17:19:47.343Z,9.13
2023-04-23T17:22:13.905Z,5.75
2023-04-23T17:24:40.709Z,8.85
2023-04-23T17:27:07.568Z,10.57
2023-04-23T17:29:34.077Z,9.50
2023-04-23T17:32:02.727Z,7.25
2023-04-23T17:34:29.303Z,6.03
2023-04-23T17:36:56.006Z,8.30
2023-04-23T17:39:23.677Z,7.95
2023-04-23T17:41:50.161Z,8.52
2023-04-23T17:44:16.967Z,7.90
2023-04-23T17:46:43.406Z,9.52
2023-04-23T17:49:10.671Z,7.43
2023-04-23T17:51:37.409Z,8.45
2023-04-23T17:54:04.207Z,6.97
2023-04-23T17:56:31.094Z,9.35
2023-04-23T17:58:57.651Z,8.63
2023-04-23T18:01:24.347Z,9.25
2023-04-23T18:03:51.690Z,8.38
2023-04-23T18:06:18.402Z,8.25
2023-04-23T18:08:44.950Z,8.27
2023-04-23T18:11:11.628Z,9.13
2023-04-23T18:13:38.322Z,8.77
2023-04-23T18:16:04.777Z,10.15
2023-04-23T18:18:31.322Z,7.70
2023-04-23T18:20:58.002Z,8.25
2023-04-23T18:23:26.109Z,10.23
2023-04-23T18:25:52.636Z,11.07
2023-04-23T18:28:19.129Z,6.65
2023-04-23T18:30:45.717Z,7.20
2023-04-23T18:33:34.328Z,10.52
2023-04-23T18:36:04.580Z,6.60
2023-04-23T18:38:40.886Z,7.53
2023-04-23T18:41:07.391Z,6.55
2023-04-23T18:43:34.443Z,6.07
2023-04-23T18:46:01.992Z,8.40
2023-04-23T18:48:41.463Z,7.13
2023-04-23T18:51:44.136Z,8.25
2023-04-23T18:54:14.967Z,5.13
2023-04-23T18:56:41.704Z,7.03
2023-04-23T18:59:08.187Z,4.78
2023-04-23T19:01:34.815Z,4.05
2023-04-23T19:04:01.806Z,6.93
2023-04-23T19:06:28.421Z,5.18
2023-04-23T19:08:54.922Z,3.85
2023-04-23T19:11:21.482Z,4.63
2023-04-23T19:13:47.932Z,3.28
2023-04-23T19:16:16.747Z,3.45
2023-04-23T19:18:43.452Z,4.70
2023-04-23T19:21:10.535Z,4.07
2023-04-23T19:23:40.389Z,4.88
2023-04-23T19:26:09.263Z,3.15
2023-04-23T19:28:35.712Z,4.10
2023-04-23T19:31:03.433Z,3.65
2023-04-23T19:33:29.929Z,3.80
2023-04-23T19:36:02.061Z,4.63
2023-04-23T19:38:34.259Z,4.90
2023-04-23T19:41:07.856Z,3.03
2023-04-23T19:43:34.569Z,7.22
2023-04-23T19:46:01.165Z,3.88
2023-04-23T19:48:27.651Z,3.58
2023-04-23T19:50:55.226Z,3.42
2023-04-23T19:53:21.754Z,2.75
2023-04-23T19:55:48.231Z,5.28
2023-04-23T19:58:18.575Z,4.25
2023-04-23T20:00:46.009Z,4.40
2023-04-23T20:03:12.740Z,3.45
2023-04-23T20:05:39.564Z,3.67
2023-04-23T20:08:14.450Z,7.15
2023-04-23T20:10:42.292Z,9.27
2023-04-23T20:13:08.753Z,19.40
2023-04-23T20:15:38.758Z,22.70
2023-04-23T20:18:06.907Z,8.10
2023-04-23T20:20:33.986Z,6.18
2023-04-23T20:23:00.757Z,4.60
2023-04-23T20:25:27.226Z,2.65
2023-04-23T20:27:56.854Z,3.55
2023-04-23T20:30:23.931Z,3.80
2023-04-23T20:32:53.329Z,4.93
2023-04-23T20:35:19.887Z,4.70
2023-04-23T20:37:49.209Z,3.70
2023-04-23T20:40:15.772Z,4.28
2023-04-23T20:42:42.381Z,6.07
2023-04-23T20:45:09.502Z,5.78
2023-04-23T20:47:42.376Z,6.18
2023-04-23T20:50:09.318Z,4.50
2023-04-23T20:52:36.552Z,3.20
2023-04-23T20:55:09.879Z,3.60
2023-04-23T20:57:37.094Z,5.25
2023-04-23T21:00:08.456Z,15.45
2023-04-23T21:02:37.885Z,10.60
2023-04-23T21:05:06.694Z,11.70
2023-04-23T21:07:34.156Z,5.97
2023-04-23T21:10:00.658Z,6.80
2023-04-23T21:12:27.545Z,4.68
2023-04-23T21:14:58.030Z,4.53
2023-04-23T21:17:28.160Z,4.13
2023-04-23T21:19:56.155Z,5.57
2023-04-23T21:22:23.400Z,3.38
2023-04-23T21:24:50.401Z,5.57
2023-04-23T21:27:21.604Z,2.95
2023-04-23T21:29:48.653Z,5.65
2023-04-23T21:32:15.784Z,3.17
2023-04-23T21:34:42.725Z,2.70
2023-04-23T21:37:14.936Z,3.15
2023-04-23T21:39:41.532Z,3.08
2023-04-23T21:42:08.275Z,2.90
2023-04-23T21:44:36.537Z,3.05
2023-04-23T21:47:04.050Z,4.00
2023-04-23T21:49:31.654Z,3.08
2023-04-23T21:51:58.195Z,6.53
2023-04-23T21:54:28.133Z,4.63
2023-04-23T21:56:54.763Z,3.97
2023-04-23T21:59:23.267Z,4.07
2023-04-23T22:01:49.803Z,3.58
2023-04-23T22:04:17.797Z,4.22
2023-04-23T22:06:46.421Z,4.63
2023-04-23T22:09:13.596Z,4.60
2023-04-23T22:11:55.243Z,3.72
2023-04-23T22:14:27.929Z,3.35
2023-04-23T22:16:58.270Z,2.88
2023-04-23T22:19:25.639Z,2.65
2023-04-23T22:21:52.093Z,4.75
2023-04-23T22:24:18.585Z,2.78
2023-04-23T22:26:45.116Z,3.33
2023-04-23T22:29:11.673Z,5.00
2023-04-23T22:31:41.188Z,4.68
2023-04-23T22:34:10.693Z,2.83
2023-04-23T22:36:43.198Z,3.08
2023-04-23T22:39:10.725Z,3.17
2023-04-23T22:41:40.610Z,2.40
2023-04-23T22:44:07.138Z,3.67
2023-04-23T22:46:33.874Z,3.08
2023-04-23T22:49:01.338Z,2.10
2023-04-23T22:51:27.981Z,3.05
2023-04-23T22:53:54.450Z,2.03
2023-04-23T22:56:23.791Z,2.40
2023-04-23T22:58:50.356Z,1.90
2023-04-23T23:01:20.296Z,3.28
2023-04-23T23:03:46.908Z,2.88
2023-04-23T23:06:16.772Z,4.30
2023-04-23T23:08:46.162Z,3.75
2023-04-23T23:11:12.785Z,4.07
2023-04-23T23:13:40.535Z,2.20
2023-04-23T23:16:07.324Z,2.33
2023-04-23T23:18:33.823Z,2.30
2023-04-23T23:21:01.320Z,4.50
2023-04-23T23:23:30.883Z,3.13
2023-04-23T23:26:00.896Z,1.90
2023-04-23T23:28:27.465Z,3.05
2023-04-23T23:30:55.512Z,2.95
2023-04-23T23:33:22.352Z,2.53
2023-04-23T23:35:55.383Z,1.40
2023-04-23T23:38:22.039Z,2.85
2023-04-23T23:40:48.535Z,2.53
2023-04-23T23:43:19.238Z,1.40
2023-04-23T23:45:47.571Z,3.85
2023-04-23T23:48:17.884Z,1.55
2023-04-23T23:50:44.574Z,1.40
2023-04-23T23:53:11.045Z,2.38
2023-04-23T23:55:38.704Z,2.75
2023-04-23T23:58:06.152Z,2.63
